sensor_id;sensor_type;location;lat;lon;timestamp;P1;durP1;ratioP1;P2;durP2;ratioP2
19016;SDS011;9641;51.494;6.670;2022-10-16T00:01:05;7.00;;;2.00;;
19016;SDS011;9641;51.494;6.670;2022-10-16T00:03:34;2.87;;;2.13;;
19016;SDS011;9641;51.494;6.670;2022-10-16T00:06:02;3.53;;;2.20;;
19016;SDS011;9641;51.494;6.670;2022-10-16T00:08:31;3.50;;;1.93;;
19016;SDS011;9641;51.494;6.670;2022-10-16T00:11:00;5.87;;;2.60;;
19016;SDS011;9641;51.494;6.670;2022-10-16T00:13:29;4.87;;;2.40;;
19016;SDS011;9641;51.494;6.670;2022-10-16T00:15:57;7.47;;;2.80;;
19016;SDS011;9641;51.494;6.670;2022-10-16T00:18:26;2.60;;;2.27;;
19016;SDS011;9641;51.494;6.670;2022-10-16T00:20:54;3.57;;;2.47;;
19016;SDS011;9641;51.494;6.670;2022-10-16T00:23:26;3.33;;;2.43;;
19016;SDS011;9641;51.494;6.670;2022-10-16T00:25:58;6.67;;;2.20;;
19016;SDS011;9641;51.494;6.670;2022-10-16T00:28:26;5.47;;;2.80;;
19016;SDS011;9641;51.494;6.670;2022-10-16T00:30:54;5.57;;;2.30;;
19016;SDS011;9641;51.494;6.670;2022-10-16T00:33:22;7.80;;;2.63;;
19016;SDS011;9641;51.494;6.670;2022-10-16T00:35:50;2.57;;;2.33;;
19016;SDS011;9641;51.494;6.670;2022-10-16T00:38:18;4.27;;;2.47;;
19016;SDS011;9641;51.494;6.670;2022-10-16T00:40:46;3.73;;;2.40;;
19016;SDS011;9641;51.494;6.670;2022-10-16T00:46:16;4.07;;;2.67;;
19016;SDS011;9641;51.494;6.670;2022-10-16T00:48:48;4.17;;;2.43;;
19016;SDS011;9641;51.494;6.670;2022-10-16T00:51:19;5.47;;;2.60;;
19016;SDS011;9641;51.494;6.670;2022-10-16T00:53:51;3.93;;;2.30;;
19016;SDS011;9641;51.494;6.670;2022-10-16T00:56:18;5.23;;;2.17;;
19016;SDS011;9641;51.494;6.670;2022-10-16T00:58:47;4.40;;;2.30;;
19016;SDS011;9641;51.494;6.670;2022-10-16T01:01:16;3.27;;;2.10;;
19016;SDS011;9641;51.494;6.670;2022-10-16T01:03:44;5.17;;;1.93;;
19016;SDS011;9641;51.494;6.670;2022-10-16T01:06:16;5.03;;;2.30;;
19016;SDS011;9641;51.494;6.670;2022-10-16T01:08:54;4.43;;;2.10;;
19016;SDS011;9641;51.494;6.670;2022-10-16T01:11:33;3.90;;;2.53;;
19016;SDS011;9641;51.494;6.670;2022-10-16T01:14:21;5.57;;;2.37;;
19016;SDS011;9641;51.494;6.670;2022-10-16T01:16:55;6.43;;;2.30;;
19016;SDS011;9641;51.494;6.670;2022-10-16T01:19:36;4.20;;;2.20;;
19016;SDS011;9641;51.494;6.670;2022-10-16T01:22:16;4.10;;;2.50;;
19016;SDS011;9641;51.494;6.670;2022-10-16T01:24:46;2.53;;;2.23;;
19016;SDS011;9641;51.494;6.670;2022-10-16T01:27:18;5.13;;;2.30;;
19016;SDS011;9641;51.494;6.670;2022-10-16T01:29:51;4.50;;;2.37;;
19016;SDS011;9641;51.494;6.670;2022-10-16T01:32:24;5.63;;;2.20;;
19016;SDS011;9641;51.494;6.670;2022-10-16T01:34:58;4.20;;;2.53;;
19016;SDS011;9641;51.494;6.670;2022-10-16T01:37:32;3.47;;;2.37;;
19016;SDS011;9641;51.494;6.670;2022-10-16T01:40:05;3.40;;;2.23;;
19016;SDS011;9641;51.494;6.670;2022-10-16T01:42:37;3.57;;;2.13;;
19016;SDS011;9641;51.494;6.670;2022-10-16T01:45:08;3.83;;;2.27;;
19016;SDS011;9641;51.494;6.670;2022-10-16T01:47:43;4.10;;;2.53;;
19016;SDS011;9641;51.494;6.670;2022-10-16T01:50:12;4.40;;;2.07;;
19016;SDS011;9641;51.494;6.670;2022-10-16T01:52:43;5.50;;;2.30;;
19016;SDS011;9641;51.494;6.670;2022-10-16T01:55:16;4.67;;;1.97;;
19016;SDS011;9641;51.494;6.670;2022-10-16T01:57:49;5.13;;;2.00;;
19016;SDS011;9641;51.494;6.670;2022-10-16T02:00:20;4.07;;;2.37;;
19016;SDS011;9641;51.494;6.670;2022-10-16T02:02:49;5.90;;;2.23;;
19016;SDS011;9641;51.494;6.670;2022-10-16T02:05:22;2.67;;;2.00;;
19016;SDS011;9641;51.494;6.670;2022-10-16T02:07:54;3.67;;;2.10;;
19016;SDS011;9641;51.494;6.670;2022-10-16T02:10:22;6.53;;;2.30;;
19016;SDS011;9641;51.494;6.670;2022-10-16T02:12:53;2.23;;;2.00;;
19016;SDS011;9641;51.494;6.670;2022-10-16T02:15:32;3.63;;;1.73;;
19016;SDS011;9641;51.494;6.670;2022-10-16T02:18:00;2.70;;;1.80;;
19016;SDS011;9641;51.494;6.670;2022-10-16T02:20:31;5.43;;;1.90;;
19016;SDS011;9641;51.494;6.670;2022-10-16T02:23:02;2.37;;;1.20;;
19016;SDS011;9641;51.494;6.670;2022-10-16T02:25:30;2.60;;;1.83;;
19016;SDS011;9641;51.494;6.670;2022-10-16T02:28:05;1.87;;;1.73;;
19016;SDS011;9641;51.494;6.670;2022-10-16T02:30:38;3.57;;;1.50;;
19016;SDS011;9641;51.494;6.670;2022-10-16T02:33:12;1.60;;;1.50;;
19016;SDS011;9641;51.494;6.670;2022-10-16T02:35:41;2.83;;;1.50;;
19016;SDS011;9641;51.494;6.670;2022-10-16T02:38:11;4.47;;;1.43;;
19016;SDS011;9641;51.494;6.670;2022-10-16T02:40:40;2.27;;;1.37;;
19016;SDS011;9641;51.494;6.670;2022-10-16T02:43:12;1.77;;;1.50;;
19016;SDS011;9641;51.494;6.670;2022-10-16T02:45:39;2.73;;;1.70;;
19016;SDS011;9641;51.494;6.670;2022-10-16T02:48:07;2.17;;;1.33;;
19016;SDS011;9641;51.494;6.670;2022-10-16T02:50:34;5.23;;;1.50;;
19016;SDS011;9641;51.494;6.670;2022-10-16T02:53:02;2.10;;;1.37;;
19016;SDS011;9641;51.494;6.670;2022-10-16T02:55:30;1.07;;;1.00;;
19016;SDS011;9641;51.494;6.670;2022-10-16T02:57:57;1.33;;;1.23;;
19016;SDS011;9641;51.494;6.670;2022-10-16T03:00:29;3.27;;;1.20;;
19016;SDS011;9641;51.494;6.670;2022-10-16T03:02:57;1.67;;;1.30;;
19016;SDS011;9641;51.494;6.670;2022-10-16T03:05:25;1.23;;;1.03;;
19016;SDS011;9641;51.494;6.670;2022-10-16T03:07:52;1.73;;;1.33;;
19016;SDS011;9641;51.494;6.670;2022-10-16T03:10:21;2.00;;;1.07;;
19016;SDS011;9641;51.494;6.670;2022-10-16T03:12:51;1.43;;;1.10;;
19016;SDS011;9641;51.494;6.670;2022-10-16T03:15:19;2.10;;;1.43;;
19016;SDS011;9641;51.494;6.670;2022-10-16T03:17:51;1.60;;;1.10;;
19016;SDS011;9641;51.494;6.670;2022-10-16T03:20:18;0.80;;;0.80;;
19016;SDS011;9641;51.494;6.670;2022-10-16T03:22:47;1.23;;;1.10;;
19016;SDS011;9641;51.494;6.670;2022-10-16T03:25:18;4.80;;;1.00;;
19016;SDS011;9641;51.494;6.670;2022-10-16T03:27:46;1.60;;;1.40;;
19016;SDS011;9641;51.494;6.670;2022-10-16T03:30:14;1.67;;;1.00;;
19016;SDS011;9641;51.494;6.670;2022-10-16T03:32:41;3.17;;;1.20;;
19016;SDS011;9641;51.494;6.670;2022-10-16T03:35:20;1.37;;;1.10;;
19016;SDS011;9641;51.494;6.670;2022-10-16T03:37:50;2.37;;;1.10;;
19016;SDS011;9641;51.494;6.670;2022-10-16T03:40:19;2.70;;;0.87;;
19016;SDS011;9641;51.494;6.670;2022-10-16T03:42:48;1.33;;;0.90;;
19016;SDS011;9641;51.494;6.670;2022-10-16T03:45:16;2.47;;;0.90;;
19016;SDS011;9641;51.494;6.670;2022-10-16T03:47:44;2.20;;;0.97;;
19016;SDS011;9641;51.494;6.670;2022-10-16T03:50:15;2.27;;;1.00;;
19016;SDS011;9641;51.494;6.670;2022-10-16T03:52:44;1.27;;;1.00;;
19016;SDS011;9641;51.494;6.670;2022-10-16T03:55:16;1.90;;;1.00;;
19016;SDS011;9641;51.494;6.670;2022-10-16T03:57:43;2.97;;;1.00;;
19016;SDS011;9641;51.494;6.670;2022-10-16T04:00:11;0.83;;;0.77;;
19016;SDS011;9641;51.494;6.670;2022-10-16T04:02:41;1.30;;;1.13;;
19016;SDS011;9641;51.494;6.670;2022-10-16T04:05:11;1.23;;;1.00;;
19016;SDS011;9641;51.494;6.670;2022-10-16T04:07:38;3.60;;;1.20;;
19016;SDS011;9641;51.494;6.670;2022-10-16T04:10:08;1.20;;;0.87;;
19016;SDS011;9641;51.494;6.670;2022-10-16T04:12:36;2.10;;;1.20;;
19016;SDS011;9641;51.494;6.670;2022-10-16T04:15:04;4.13;;;1.23;;
19016;SDS011;9641;51.494;6.670;2022-10-16T04:17:34;2.07;;;1.00;;
19016;SDS011;9641;51.494;6.670;2022-10-16T04:20:03;3.37;;;1.20;;
19016;SDS011;9641;51.494;6.670;2022-10-16T04:22:32;1.13;;;1.03;;
19016;SDS011;9641;51.494;6.670;2022-10-16T04:25:00;1.03;;;0.93;;
19016;SDS011;9641;51.494;6.670;2022-10-16T04:27:31;1.33;;;0.80;;
19016;SDS011;9641;51.494;6.670;2022-10-16T04:29:59;2.00;;;0.90;;
19016;SDS011;9641;51.494;6.670;2022-10-16T04:32:27;1.63;;;1.13;;
19016;SDS011;9641;51.494;6.670;2022-10-16T04:34:55;1.33;;;1.03;;
19016;SDS011;9641;51.494;6.670;2022-10-16T04:37:23;1.63;;;1.00;;
19016;SDS011;9641;51.494;6.670;2022-10-16T04:39:51;1.10;;;1.00;;
19016;SDS011;9641;51.494;6.670;2022-10-16T04:42:19;1.90;;;0.90;;
19016;SDS011;9641;51.494;6.670;2022-10-16T04:44:49;1.03;;;0.83;;
19016;SDS011;9641;51.494;6.670;2022-10-16T04:47:16;3.97;;;0.90;;
19016;SDS011;9641;51.494;6.670;2022-10-16T04:49:43;2.40;;;1.00;;
19016;SDS011;9641;51.494;6.670;2022-10-16T04:52:11;1.10;;;0.90;;
19016;SDS011;9641;51.494;6.670;2022-10-16T04:54:39;4.80;;;1.00;;
19016;SDS011;9641;51.494;6.670;2022-10-16T04:57:07;2.47;;;0.73;;
19016;SDS011;9641;51.494;6.670;2022-10-16T04:59:34;2.13;;;0.83;;
19016;SDS011;9641;51.494;6.670;2022-10-16T05:02:05;2.47;;;1.30;;
19016;SDS011;9641;51.494;6.670;2022-10-16T05:04:32;1.00;;;0.83;;
19016;SDS011;9641;51.494;6.670;2022-10-16T05:07:00;0.70;;;0.70;;
19016;SDS011;9641;51.494;6.670;2022-10-16T05:09:27;0.97;;;0.80;;
19016;SDS011;9641;51.494;6.670;2022-10-16T05:11:55;1.10;;;1.10;;
19016;SDS011;9641;51.494;6.670;2022-10-16T05:14:24;1.50;;;0.83;;
19016;SDS011;9641;51.494;6.670;2022-10-16T05:16:51;2.63;;;1.70;;
19016;SDS011;9641;51.494;6.670;2022-10-16T05:19:22;1.97;;;1.10;;
19016;SDS011;9641;51.494;6.670;2022-10-16T05:21:49;2.83;;;1.00;;
19016;SDS011;9641;51.494;6.670;2022-10-16T05:24:16;1.70;;;0.93;;
19016;SDS011;9641;51.494;6.670;2022-10-16T05:26:43;1.03;;;0.90;;
19016;SDS011;9641;51.494;6.670;2022-10-16T05:29:10;2.03;;;1.10;;
19016;SDS011;9641;51.494;6.670;2022-10-16T05:31:38;1.27;;;1.10;;
19016;SDS011;9641;51.494;6.670;2022-10-16T05:34:05;5.20;;;1.40;;
19016;SDS011;9641;51.494;6.670;2022-10-16T05:36:36;2.87;;;1.10;;
19016;SDS011;9641;51.494;6.670;2022-10-16T05:39:04;1.37;;;1.10;;
19016;SDS011;9641;51.494;6.670;2022-10-16T05:41:33;1.27;;;0.93;;
19016;SDS011;9641;51.494;6.670;2022-10-16T05:44:03;1.87;;;0.97;;
19016;SDS011;9641;51.494;6.670;2022-10-16T05:46:31;1.77;;;1.20;;
19016;SDS011;9641;51.494;6.670;2022-10-16T05:48:59;2.23;;;1.30;;
19016;SDS011;9641;51.494;6.670;2022-10-16T05:51:27;0.97;;;0.87;;
19016;SDS011;9641;51.494;6.670;2022-10-16T05:53:56;1.33;;;1.00;;
19016;SDS011;9641;51.494;6.670;2022-10-16T05:56:25;3.73;;;1.27;;
19016;SDS011;9641;51.494;6.670;2022-10-16T05:58:52;1.40;;;1.13;;
19016;SDS011;9641;51.494;6.670;2022-10-16T06:01:20;1.20;;;1.20;;
19016;SDS011;9641;51.494;6.670;2022-10-16T06:03:49;1.60;;;1.20;;
19016;SDS011;9641;51.494;6.670;2022-10-16T06:06:17;3.70;;;1.20;;
19016;SDS011;9641;51.494;6.670;2022-10-16T06:08:49;2.77;;;1.23;;
19016;SDS011;9641;51.494;6.670;2022-10-16T06:11:18;1.10;;;1.10;;
19016;SDS011;9641;51.494;6.670;2022-10-16T06:13:48;2.20;;;1.20;;
19016;SDS011;9641;51.494;6.670;2022-10-16T06:16:18;1.77;;;1.30;;
19016;SDS011;9641;51.494;6.670;2022-10-16T06:18:45;1.30;;;1.20;;
19016;SDS011;9641;51.494;6.670;2022-10-16T06:21:17;1.50;;;1.20;;
19016;SDS011;9641;51.494;6.670;2022-10-16T06:23:46;1.70;;;1.30;;
19016;SDS011;9641;51.494;6.670;2022-10-16T06:26:19;1.50;;;1.40;;
19016;SDS011;9641;51.494;6.670;2022-10-16T06:28:47;5.17;;;1.50;;
19016;SDS011;9641;51.494;6.670;2022-10-16T06:31:15;1.33;;;1.23;;
19016;SDS011;9641;51.494;6.670;2022-10-16T06:33:43;2.47;;;1.47;;
19016;SDS011;9641;51.494;6.670;2022-10-16T06:36:13;4.87;;;1.27;;
19016;SDS011;9641;51.494;6.670;2022-10-16T06:38:43;2.07;;;1.50;;
19016;SDS011;9641;51.494;6.670;2022-10-16T06:41:11;1.57;;;1.47;;
19016;SDS011;9641;51.494;6.670;2022-10-16T06:43:41;2.50;;;1.47;;
19016;SDS011;9641;51.494;6.670;2022-10-16T06:46:10;2.97;;;1.90;;
19016;SDS011;9641;51.494;6.670;2022-10-16T06:48:38;2.10;;;1.57;;
19016;SDS011;9641;51.494;6.670;2022-10-16T06:51:08;1.50;;;1.40;;
19016;SDS011;9641;51.494;6.670;2022-10-16T06:53:38;1.47;;;1.30;;
19016;SDS011;9641;51.494;6.670;2022-10-16T06:56:07;2.73;;;1.60;;
19016;SDS011;9641;51.494;6.670;2022-10-16T06:58:35;3.10;;;1.40;;
19016;SDS011;9641;51.494;6.670;2022-10-16T07:01:06;2.20;;;1.87;;
19016;SDS011;9641;51.494;6.670;2022-10-16T07:03:35;1.83;;;1.43;;
19016;SDS011;9641;51.494;6.670;2022-10-16T07:06:05;1.97;;;1.63;;
19016;SDS011;9641;51.494;6.670;2022-10-16T07:08:38;1.70;;;1.60;;
19016;SDS011;9641;51.494;6.670;2022-10-16T07:11:08;3.80;;;1.73;;
19016;SDS011;9641;51.494;6.670;2022-10-16T07:13:38;2.50;;;1.50;;
19016;SDS011;9641;51.494;6.670;2022-10-16T07:16:09;2.77;;;1.70;;
19016;SDS011;9641;51.494;6.670;2022-10-16T07:18:41;2.57;;;1.83;;
19016;SDS011;9641;51.494;6.670;2022-10-16T07:21:24;1.57;;;1.47;;
19016;SDS011;9641;51.494;6.670;2022-10-16T07:23:57;1.70;;;1.60;;
19016;SDS011;9641;51.494;6.670;2022-10-16T07:26:29;3.30;;;1.77;;
19016;SDS011;9641;51.494;6.670;2022-10-16T07:29:00;1.80;;;1.70;;
19016;SDS011;9641;51.494;6.670;2022-10-16T07:31:42;4.20;;;2.07;;
19016;SDS011;9641;51.494;6.670;2022-10-16T07:34:21;5.20;;;2.00;;
19016;SDS011;9641;51.494;6.670;2022-10-16T07:36:48;1.87;;;1.60;;
19016;SDS011;9641;51.494;6.670;2022-10-16T07:39:16;3.13;;;2.03;;
19016;SDS011;9641;51.494;6.670;2022-10-16T07:41:44;3.13;;;2.00;;
19016;SDS011;9641;51.494;6.670;2022-10-16T07:44:12;2.33;;;1.90;;
19016;SDS011;9641;51.494;6.670;2022-10-16T07:46:58;2.37;;;1.57;;
19016;SDS011;9641;51.494;6.670;2022-10-16T07:49:38;3.53;;;1.97;;
19016;SDS011;9641;51.494;6.670;2022-10-16T07:52:10;4.63;;;1.60;;
19016;SDS011;9641;51.494;6.670;2022-10-16T07:54:51;2.43;;;1.87;;
19016;SDS011;9641;51.494;6.670;2022-10-16T07:57:24;3.43;;;1.70;;
19016;SDS011;9641;51.494;6.670;2022-10-16T08:05:53;1.93;;;1.80;;
19016;SDS011;9641;51.494;6.670;2022-10-16T08:08:35;3.30;;;1.77;;
19016;SDS011;9641;51.494;6.670;2022-10-16T08:11:31;2.43;;;1.97;;
19016;SDS011;9641;51.494;6.670;2022-10-16T08:14:00;2.27;;;1.90;;
19016;SDS011;9641;51.494;6.670;2022-10-16T08:19:11;2.10;;;1.90;;
19016;SDS011;9641;51.494;6.670;2022-10-16T08:27:00;6.03;;;2.77;;
19016;SDS011;9641;51.494;6.670;2022-10-16T08:29:27;2.93;;;2.37;;
19016;SDS011;9641;51.494;6.670;2022-10-16T08:31:55;1.80;;;1.63;;
19016;SDS011;9641;51.494;6.670;2022-10-16T08:34:23;1.97;;;1.83;;
19016;SDS011;9641;51.494;6.670;2022-10-16T08:36:52;1.70;;;1.50;;
19016;SDS011;9641;51.494;6.670;2022-10-16T08:39:20;2.97;;;1.70;;
19016;SDS011;9641;51.494;6.670;2022-10-16T08:42:08;3.03;;;1.90;;
19016;SDS011;9641;51.494;6.670;2022-10-16T08:44:59;2.83;;;1.70;;
19016;SDS011;9641;51.494;6.670;2022-10-16T08:47:35;3.10;;;1.93;;
19016;SDS011;9641;51.494;6.670;2022-10-16T08:50:11;1.87;;;1.57;;
19016;SDS011;9641;51.494;6.670;2022-10-16T08:52:41;2.50;;;1.70;;
19016;SDS011;9641;51.494;6.670;2022-10-16T08:55:16;7.50;;;2.70;;
19016;SDS011;9641;51.494;6.670;2022-10-16T09:00:49;1.90;;;1.80;;
19016;SDS011;9641;51.494;6.670;2022-10-16T09:04:00;4.20;;;1.70;;
19016;SDS011;9641;51.494;6.670;2022-10-16T09:12:31;1.40;;;1.30;;
19016;SDS011;9641;51.494;6.670;2022-10-16T09:15:11;3.60;;;1.63;;
19016;SDS011;9641;51.494;6.670;2022-10-16T09:17:56;3.30;;;1.37;;
19016;SDS011;9641;51.494;6.670;2022-10-16T09:20:33;3.90;;;1.63;;
19016;SDS011;9641;51.494;6.670;2022-10-16T09:23:14;2.90;;;1.70;;
19016;SDS011;9641;51.494;6.670;2022-10-16T09:25:47;2.27;;;1.50;;
19016;SDS011;9641;51.494;6.670;2022-10-16T09:28:17;2.63;;;1.20;;
19016;SDS011;9641;51.494;6.670;2022-10-16T09:30:46;3.00;;;1.03;;
19016;SDS011;9641;51.494;6.670;2022-10-16T09:33:15;2.90;;;1.20;;
19016;SDS011;9641;51.494;6.670;2022-10-16T09:35:44;1.43;;;1.07;;
19016;SDS011;9641;51.494;6.670;2022-10-16T09:38:25;6.40;;;1.43;;
19016;SDS011;9641;51.494;6.670;2022-10-16T09:40:54;2.90;;;1.17;;
19016;SDS011;9641;51.494;6.670;2022-10-16T09:43:24;2.77;;;1.33;;
19016;SDS011;9641;51.494;6.670;2022-10-16T09:46:01;1.57;;;1.33;;
19016;SDS011;9641;51.494;6.670;2022-10-16T09:48:31;1.83;;;1.10;;
19016;SDS011;9641;51.494;6.670;2022-10-16T09:51:03;2.30;;;1.00;;
19016;SDS011;9641;51.494;6.670;2022-10-16T09:53:40;1.00;;;0.97;;
19016;SDS011;9641;51.494;6.670;2022-10-16T09:56:09;2.37;;;1.07;;
19016;SDS011;9641;51.494;6.670;2022-10-16T09:58:41;1.50;;;1.10;;
19016;SDS011;9641;51.494;6.670;2022-10-16T10:01:13;3.70;;;1.00;;
19016;SDS011;9641;51.494;6.670;2022-10-16T10:03:41;3.97;;;1.20;;
19016;SDS011;9641;51.494;6.670;2022-10-16T10:06:16;1.70;;;0.93;;
19016;SDS011;9641;51.494;6.670;2022-10-16T10:08:59;1.40;;;1.10;;
19016;SDS011;9641;51.494;6.670;2022-10-16T10:11:44;1.00;;;1.00;;
19016;SDS011;9641;51.494;6.670;2022-10-16T10:14:18;1.30;;;1.20;;
19016;SDS011;9641;51.494;6.670;2022-10-16T10:16:50;2.13;;;1.10;;
19016;SDS011;9641;51.494;6.670;2022-10-16T10:19:19;4.33;;;1.23;;
19016;SDS011;9641;51.494;6.670;2022-10-16T10:21:48;1.83;;;0.73;;
19016;SDS011;9641;51.494;6.670;2022-10-16T10:24:16;2.60;;;0.90;;
19016;SDS011;9641;51.494;6.670;2022-10-16T10:26:48;1.37;;;0.87;;
19016;SDS011;9641;51.494;6.670;2022-10-16T10:29:22;3.00;;;1.00;;
19016;SDS011;9641;51.494;6.670;2022-10-16T10:32:07;2.00;;;0.90;;
19016;SDS011;9641;51.494;6.670;2022-10-16T10:34:47;3.87;;;1.30;;
19016;SDS011;9641;51.494;6.670;2022-10-16T10:37:33;2.53;;;0.80;;
19016;SDS011;9641;51.494;6.670;2022-10-16T10:40:22;3.40;;;0.90;;
19016;SDS011;9641;51.494;6.670;2022-10-16T10:42:57;2.20;;;0.90;;
19016;SDS011;9641;51.494;6.670;2022-10-16T10:45:36;4.73;;;1.43;;
19016;SDS011;9641;51.494;6.670;2022-10-16T10:48:15;5.20;;;1.07;;
19016;SDS011;9641;51.494;6.670;2022-10-16T10:50:49;0.97;;;0.60;;
19016;SDS011;9641;51.494;6.670;2022-10-16T10:53:25;5.97;;;1.17;;
19016;SDS011;9641;51.494;6.670;2022-10-16T10:56:05;2.23;;;0.70;;
19016;SDS011;9641;51.494;6.670;2022-10-16T10:58:49;2.13;;;0.60;;
19016;SDS011;9641;51.494;6.670;2022-10-16T11:01:29;2.10;;;1.05;;
19016;SDS011;9641;51.494;6.670;2022-10-16T11:04:11;1.77;;;1.00;;
19016;SDS011;9641;51.494;6.670;2022-10-16T11:06:57;1.40;;;1.00;;
19016;SDS011;9641;51.494;6.670;2022-10-16T11:09:28;1.02;;;0.60;;
19016;SDS011;9641;51.494;6.670;2022-10-16T11:12:05;2.63;;;0.55;;
19016;SDS011;9641;51.494;6.670;2022-10-16T11:14:38;5.22;;;0.90;;
19016;SDS011;9641;51.494;6.670;2022-10-16T11:17:13;2.53;;;0.77;;
19016;SDS011;9641;51.494;6.670;2022-10-16T11:19:51;4.43;;;1.75;;
19016;SDS011;9641;51.494;6.670;2022-10-16T11:22:24;2.00;;;1.15;;
19016;SDS011;9641;51.494;6.670;2022-10-16T11:24:59;1.67;;;0.75;;
19016;SDS011;9641;51.494;6.670;2022-10-16T11:27:36;2.15;;;0.80;;
19016;SDS011;9641;51.494;6.670;2022-10-16T11:30:13;1.30;;;0.80;;
19016;SDS011;9641;51.494;6.670;2022-10-16T11:32:47;4.22;;;1.25;;
19016;SDS011;9641;51.494;6.670;2022-10-16T11:35:47;1.88;;;0.80;;
19016;SDS011;9641;51.494;6.670;2022-10-16T11:38:27;0.75;;;0.68;;
19016;SDS011;9641;51.494;6.670;2022-10-16T11:41:03;1.92;;;0.98;;
19016;SDS011;9641;51.494;6.670;2022-10-16T11:43:37;4.88;;;0.95;;
19016;SDS011;9641;51.494;6.670;2022-10-16T11:46:08;1.48;;;0.60;;
19016;SDS011;9641;51.494;6.670;2022-10-16T11:48:41;3.70;;;0.65;;
19016;SDS011;9641;51.494;6.670;2022-10-16T11:51:20;3.30;;;0.70;;
19016;SDS011;9641;51.494;6.670;2022-10-16T11:53:56;1.35;;;0.60;;
19016;SDS011;9641;51.494;6.670;2022-10-16T11:56:29;3.47;;;0.65;;
19016;SDS011;9641;51.494;6.670;2022-10-16T11:58:59;1.80;;;0.60;;
19016;SDS011;9641;51.494;6.670;2022-10-16T12:01:32;2.92;;;0.60;;
19016;SDS011;9641;51.494;6.670;2022-10-16T12:04:18;2.25;;;0.85;;
19016;SDS011;9641;51.494;6.670;2022-10-16T12:06:59;0.60;;;0.60;;
19016;SDS011;9641;51.494;6.670;2022-10-16T12:09:41;3.92;;;0.80;;
19016;SDS011;9641;51.494;6.670;2022-10-16T12:12:25;1.50;;;0.52;;
19016;SDS011;9641;51.494;6.670;2022-10-16T12:15:15;1.15;;;0.40;;
19016;SDS011;9641;51.494;6.670;2022-10-16T12:18:01;1.10;;;0.60;;
19016;SDS011;9641;51.494;6.670;2022-10-16T12:20:35;1.80;;;0.55;;
19016;SDS011;9641;51.494;6.670;2022-10-16T12:37:10;2.38;;;0.60;;
19016;SDS011;9641;51.494;6.670;2022-10-16T12:40:28;2.13;;;0.82;;
19016;SDS011;9641;51.494;6.670;2022-10-16T12:43:24;1.52;;;0.80;;
19016;SDS011;9641;51.494;6.670;2022-10-16T12:46:26;1.10;;;0.73;;
19016;SDS011;9641;51.494;6.670;2022-10-16T12:49:37;2.50;;;0.65;;
19016;SDS011;9641;51.494;6.670;2022-10-16T12:56:19;2.47;;;0.60;;
19016;SDS011;9641;51.494;6.670;2022-10-16T12:59:52;1.02;;;0.65;;
19016;SDS011;9641;51.494;6.670;2022-10-16T13:12:03;2.50;;;0.50;;
19016;SDS011;9641;51.494;6.670;2022-10-16T13:14:53;1.10;;;0.80;;
19016;SDS011;9641;51.494;6.670;2022-10-16T13:17:42;2.65;;;0.70;;
19016;SDS011;9641;51.494;6.670;2022-10-16T13:20:21;1.27;;;0.40;;
19016;SDS011;9641;51.494;6.670;2022-10-16T13:23:06;1.55;;;0.55;;
19016;SDS011;9641;51.494;6.670;2022-10-16T13:25:44;3.13;;;1.27;;
19016;SDS011;9641;51.494;6.670;2022-10-16T13:28:22;1.45;;;0.20;;
19016;SDS011;9641;51.494;6.670;2022-10-16T13:30:54;0.93;;;0.40;;
19016;SDS011;9641;51.494;6.670;2022-10-16T13:33:25;0.50;;;0.50;;
19016;SDS011;9641;51.494;6.670;2022-10-16T13:35:58;0.90;;;0.50;;
19016;SDS011;9641;51.494;6.670;2022-10-16T13:38:26;2.67;;;0.68;;
19016;SDS011;9641;51.494;6.670;2022-10-16T13:40:55;0.95;;;0.40;;
19016;SDS011;9641;51.494;6.670;2022-10-16T13:43:34;1.80;;;0.40;;
19016;SDS011;9641;51.494;6.670;2022-10-16T13:46:10;1.42;;;0.68;;
19016;SDS011;9641;51.494;6.670;2022-10-16T13:53:10;0.70;;;0.70;;
19016;SDS011;9641;51.494;6.670;2022-10-16T13:58:57;2.72;;;0.50;;
19016;SDS011;9641;51.494;6.670;2022-10-16T14:01:33;2.65;;;0.65;;
19016;SDS011;9641;51.494;6.670;2022-10-16T14:05:14;1.73;;;0.60;;
19016;SDS011;9641;51.494;6.670;2022-10-16T14:08:53;1.95;;;0.50;;
19016;SDS011;9641;51.494;6.670;2022-10-16T14:10:52;1.35;;;0.60;;
19016;SDS011;9641;51.494;6.670;2022-10-16T14:13:36;3.38;;;0.63;;
19016;SDS011;9641;51.494;6.670;2022-10-16T14:16:20;0.50;;;0.50;;
19016;SDS011;9641;51.494;6.670;2022-10-16T14:18:51;0.47;;;0.45;;
19016;SDS011;9641;51.494;6.670;2022-10-16T14:21:28;1.05;;;0.60;;
19016;SDS011;9641;51.494;6.670;2022-10-16T14:24:11;2.30;;;0.60;;
19016;SDS011;9641;51.494;6.670;2022-10-16T14:26:52;1.17;;;0.45;;
19016;SDS011;9641;51.494;6.670;2022-10-16T14:29:23;1.80;;;0.60;;
19016;SDS011;9641;51.494;6.670;2022-10-16T14:31:59;0.98;;;0.65;;
19016;SDS011;9641;51.494;6.670;2022-10-16T14:34:30;0.77;;;0.60;;
19016;SDS011;9641;51.494;6.670;2022-10-16T14:37:03;3.20;;;0.77;;
19016;SDS011;9641;51.494;6.670;2022-10-16T14:39:40;0.45;;;0.40;;
19016;SDS011;9641;51.494;6.670;2022-10-16T14:42:14;2.05;;;0.50;;
19016;SDS011;9641;51.494;6.670;2022-10-16T14:44:54;3.13;;;1.33;;
19016;SDS011;9641;51.494;6.670;2022-10-16T14:47:24;2.63;;;1.20;;
19016;SDS011;9641;51.494;6.670;2022-10-16T14:49:55;2.45;;;1.10;;
19016;SDS011;9641;51.494;6.670;2022-10-16T14:52:24;2.22;;;1.77;;
19016;SDS011;9641;51.494;6.670;2022-10-16T14:54:52;1.65;;;1.02;;
19016;SDS011;9641;51.494;6.670;2022-10-16T14:57:22;3.10;;;1.00;;
19016;SDS011;9641;51.494;6.670;2022-10-16T15:00:02;1.77;;;1.23;;
19016;SDS011;9641;51.494;6.670;2022-10-16T15:02:40;1.80;;;1.00;;
19016;SDS011;9641;51.494;6.670;2022-10-16T15:05:11;3.88;;;1.17;;
19016;SDS011;9641;51.494;6.670;2022-10-16T15:07:40;1.30;;;1.20;;
19016;SDS011;9641;51.494;6.670;2022-10-16T15:10:14;2.10;;;1.20;;
19016;SDS011;9641;51.494;6.670;2022-10-16T15:15:42;3.33;;;0.90;;
19016;SDS011;9641;51.494;6.670;2022-10-16T15:18:30;2.33;;;1.40;;
19016;SDS011;9641;51.494;6.670;2022-10-16T15:34:08;3.35;;;1.10;;
19016;SDS011;9641;51.494;6.670;2022-10-16T15:36:38;4.65;;;1.25;;
19016;SDS011;9641;51.494;6.670;2022-10-16T15:39:13;3.25;;;0.70;;
19016;SDS011;9641;51.494;6.670;2022-10-16T15:41:41;2.13;;;0.93;;
19016;SDS011;9641;51.494;6.670;2022-10-16T15:44:09;3.58;;;0.93;;
19016;SDS011;9641;51.494;6.670;2022-10-16T15:46:38;3.70;;;0.95;;
19016;SDS011;9641;51.494;6.670;2022-10-16T15:49:14;1.45;;;0.90;;
19016;SDS011;9641;51.494;6.670;2022-10-16T15:54:32;2.33;;;0.97;;
19016;SDS011;9641;51.494;6.670;2022-10-16T15:59:58;2.72;;;0.73;;
19016;SDS011;9641;51.494;6.670;2022-10-16T16:02:31;1.45;;;1.10;;
19016;SDS011;9641;51.494;6.670;2022-10-16T16:05:10;22.83;;;4.27;;
19016;SDS011;9641;51.494;6.670;2022-10-16T16:07:38;3.40;;;1.10;;
19016;SDS011;9641;51.494;6.670;2022-10-16T16:10:22;3.83;;;1.20;;
19016;SDS011;9641;51.494;6.670;2022-10-16T16:12:50;1.00;;;0.90;;
19016;SDS011;9641;51.494;6.670;2022-10-16T16:15:21;1.67;;;1.00;;
19016;SDS011;9641;51.494;6.670;2022-10-16T16:17:52;4.77;;;1.30;;
19016;SDS011;9641;51.494;6.670;2022-10-16T16:20:22;6.40;;;1.27;;
19016;SDS011;9641;51.494;6.670;2022-10-16T16:22:50;2.83;;;1.10;;
19016;SDS011;9641;51.494;6.670;2022-10-16T16:25:28;3.43;;;1.20;;
19016;SDS011;9641;51.494;6.670;2022-10-16T16:28:39;1.83;;;1.10;;
19016;SDS011;9641;51.494;6.670;2022-10-16T16:33:53;4.67;;;1.40;;
19016;SDS011;9641;51.494;6.670;2022-10-16T16:44:05;4.67;;;1.70;;
19016;SDS011;9641;51.494;6.670;2022-10-16T16:46:37;5.67;;;2.00;;
19016;SDS011;9641;51.494;6.670;2022-10-16T16:53:00;3.17;;;1.47;;
19016;SDS011;9641;51.494;6.670;2022-10-16T16:56:09;3.70;;;1.40;;
19016;SDS011;9641;51.494;6.670;2022-10-16T16:58:53;3.93;;;1.60;;
19016;SDS011;9641;51.494;6.670;2022-10-16T17:01:38;3.33;;;1.40;;
19016;SDS011;9641;51.494;6.670;2022-10-16T17:04:22;2.83;;;1.30;;
19016;SDS011;9641;51.494;6.670;2022-10-16T17:06:58;8.30;;;1.50;;
19016;SDS011;9641;51.494;6.670;2022-10-16T17:09:26;2.63;;;1.50;;
19016;SDS011;9641;51.494;6.670;2022-10-16T17:12:08;2.60;;;1.87;;
19016;SDS011;9641;51.494;6.670;2022-10-16T17:14:36;9.77;;;2.00;;
19016;SDS011;9641;51.494;6.670;2022-10-16T17:17:05;3.53;;;1.50;;